Time;durP1;ratioP1;P1;durP2;ratioP2;P2;SDS_P1;SDS_P2;PMS_P1;PMS_P2;Temp;Humidity;BMP_temperature;BMP_pressure;BME280_temperature;BME280_humidity;BME280_pressure;Samples;Min_cycle;Max_cycle;Signal;HPM_P1;HPM_P2
2024/01/07 00:00:57;;;;;;;38.47;15.73;;;;;;;;;;6268859;28;20056;-62
2024/01/07 00:04:18;;;;;;;40.70;15.52;;;;;;;;;;6270125;28;20080;-63
2024/01/07 00:07:20;;;;;;;36.35;16.27;;;;;;;;;;6270376;28;20152;-63
2024/01/07 00:10:21;;;;;;;35.10;14.63;;;;;;;;;;6270829;28;20453;-62
2024/01/07 00:13:22;;;;;;;33.13;14.05;;;;;;;;;;6273345;28;20094;-63
2024/01/07 00:16:23;;;;;;;40.88;14.70;;;;;;;;;;6268646;28;20659;-63
2024/01/07 00:19:25;;;;;;;38.88;15.90;;;;;;;;;;6271341;28;20057;-63
2024/01/07 00:22:26;;;;;;;39.35;15.70;;;;;;;;;;6268326;28;20635;-63
2024/01/07 00:25:26;;;;;;;37.95;15.25;;;;;;;;;;6266794;28;21267;-64
2024/01/07 00:28:27;;;;;;;35.90;14.88;;;;;;;;;;6267790;28;20060;-63
2024/01/07 00:31:28;;;;;;;40.45;15.52;;;;;;;;;;6270179;28;20049;-63
2024/01/07 00:34:29;;;;;;;36.95;15.32;;;;;;;;;;6269213;28;20183;-63
2024/01/07 00:37:30;;;;;;;38.20;15.55;;;;;;;;;;6271407;28;20107;-63
2024/01/07 00:40:30;;;;;;;38.42;16.55;;;;;;;;;;6269655;28;20112;-63
2024/01/07 00:43:31;;;;;;;38.47;15.98;;;;;;;;;;6267552;28;20048;-62
2024/01/07 00:46:32;;;;;;;36.78;14.05;;;;;;;;;;6267755;28;20052;-62
2024/01/07 00:49:33;;;;;;;39.90;15.75;;;;;;;;;;6267764;28;20045;-62
2024/01/07 00:52:35;;;;;;;37.53;15.30;;;;;;;;;;6270952;28;20099;-63
2024/01/07 00:55:35;;;;;;;35.08;15.00;;;;;;;;;;6272263;28;20041;-63
2024/01/07 00:58:37;;;;;;;38.70;15.43;;;;;;;;;;6271241;28;20048;-62
2024/01/07 01:01:37;;;;;;;38.50;15.75;;;;;;;;;;6271391;28;20037;-61
2024/01/07 01:04:39;;;;;;;35.53;15.50;;;;;;;;;;6270308;28;20617;-63
2024/01/07 01:07:40;;;;;;;30.65;12.82;;;;;;;;;;6272126;28;20653;-63
2024/01/07 01:10:41;;;;;;;29.40;11.93;;;;;;;;;;6271588;28;20757;-63
2024/01/07 01:13:42;;;;;;;32.58;13.45;;;;;;;;;;6270508;28;20048;-62
2024/01/07 01:16:43;;;;;;;35.25;14.10;;;;;;;;;;6267282;28;20049;-63
2024/01/07 01:19:43;;;;;;;29.75;12.82;;;;;;;;;;6270003;28;20053;-63
2024/01/07 01:22:44;;;;;;;33.92;13.80;;;;;;;;;;6266602;28;20052;-63
2024/01/07 01:25:45;;;;;;;32.60;12.45;;;;;;;;;;6265314;28;20064;-62
2024/01/07 01:28:46;;;;;;;30.90;12.60;;;;;;;;;;6267333;28;20051;-63
2024/01/07 01:31:46;;;;;;;31.90;12.88;;;;;;;;;;6266894;28;20075;-63
2024/01/07 01:34:47;;;;;;;29.15;11.27;;;;;;;;;;6271297;28;20057;-63
2024/01/07 01:37:48;;;;;;;29.65;11.55;;;;;;;;;;6271347;28;20058;-63
2024/01/07 01:40:55;;;;;;;27.92;11.02;;;;;;;;;;6273563;28;20044;-64
2024/01/07 01:43:59;;;;;;;28.90;11.55;;;;;;;;;;6277653;28;20052;-63
2024/01/07 01:47:01;;;;;;;24.92;10.77;;;;;;;;;;6288054;28;20044;-63
2024/01/07 01:50:02;;;;;;;24.90;11.60;;;;;;;;;;6290142;28;20115;-62
2024/01/07 01:53:03;;;;;;;29.70;12.07;;;;;;;;;;6287661;28;20097;-63
2024/01/07 01:56:04;;;;;;;28.42;11.43;;;;;;;;;;6283299;28;20044;-63
2024/01/07 01:59:05;;;;;;;34.78;11.32;;;;;;;;;;6289489;28;20047;-63
2024/01/07 02:02:06;;;;;;;26.45;10.30;;;;;;;;;;6287697;28;20048;-63
2024/01/07 02:05:07;;;;;;;24.55;10.48;;;;;;;;;;6288586;28;20048;-64
2024/01/07 02:08:08;;;;;;;32.20;10.75;;;;;;;;;;6289008;28;20052;-63
2024/01/07 02:11:20;;;;;;;26.03;10.70;;;;;;;;;;6287534;28;20109;-62
2024/01/07 02:14:20;;;;;;;24.87;9.63;;;;;;;;;;6287078;28;20048;-63
2024/01/07 02:17:21;;;;;;;25.77;10.32;;;;;;;;;;6289332;28;20350;-62
2024/01/07 02:20:23;;;;;;;24.63;9.48;;;;;;;;;;6289568;28;20409;-62
2024/01/07 02:23:24;;;;;;;22.40;10.02;;;;;;;;;;6287935;28;20041;-61
2024/01/07 02:26:24;;;;;;;23.00;9.20;;;;;;;;;;6289933;28;20102;-63
2024/01/07 02:29:25;;;;;;;22.02;9.75;;;;;;;;;;6288105;28;20044;-63
2024/01/07 02:32:26;;;;;;;26.65;10.38;;;;;;;;;;6281611;28;20094;-64
2024/01/07 02:35:27;;;;;;;22.65;9.07;;;;;;;;;;6289329;28;20052;-63
2024/01/07 02:38:28;;;;;;;27.25;9.95;;;;;;;;;;6286275;28;21611;-63
2024/01/07 02:41:29;;;;;;;26.10;9.55;;;;;;;;;;6282418;28;20156;-61
2024/01/07 02:44:29;;;;;;;25.85;9.63;;;;;;;;;;6278599;28;20229;-63
2024/01/07 02:47:30;;;;;;;32.80;10.02;;;;;;;;;;6280773;28;20113;-63
2024/01/07 02:50:32;;;;;;;21.40;9.07;;;;;;;;;;6288223;28;20045;-62
2024/01/07 02:53:33;;;;;;;25.40;10.18;;;;;;;;;;6286091;28;20056;-63
2024/01/07 02:56:33;;;;;;;26.75;9.85;;;;;;;;;;6288567;28;20567;-63
2024/01/07 02:59:35;;;;;;;26.05;9.38;;;;;;;;;;6291130;28;20147;-62
2024/01/07 03:02:35;;;;;;;20.70;8.30;;;;;;;;;;6287517;28;20052;-63
2024/01/07 03:05:36;;;;;;;22.48;9.93;;;;;;;;;;6289367;28;20061;-63
2024/01/07 03:08:37;;;;;;;21.63;8.50;;;;;;;;;;6290144;28;20798;-63
2024/01/07 03:11:41;;;;;;;21.23;8.48;;;;;;;;;;6289344;28;20101;-62
2024/01/07 03:14:42;;;;;;;23.90;9.40;;;;;;;;;;6288590;28;20071;-62
2024/01/07 03:17:44;;;;;;;24.40;9.15;;;;;;;;;;6289513;28;20506;-62
2024/01/07 03:20:44;;;;;;;22.35;8.90;;;;;;;;;;6290307;28;20055;-63
2024/01/07 03:23:46;;;;;;;22.23;8.73;;;;;;;;;;6288133;28;20055;-62
2024/01/07 03:26:47;;;;;;;24.33;8.88;;;;;;;;;;6289636;28;20049;-62
2024/01/07 03:29:48;;;;;;;21.25;7.50;;;;;;;;;;6292993;28;20075;-61
2024/01/07 03:32:48;;;;;;;20.33;8.57;;;;;;;;;;6293116;28;20051;-63
2024/01/07 03:35:49;;;;;;;22.20;8.23;;;;;;;;;;6293147;28;20045;-62
2024/01/07 03:38:50;;;;;;;22.83;8.75;;;;;;;;;;6294383;28;20111;-63
2024/01/07 03:41:55;;;;;;;18.90;8.20;;;;;;;;;;6291836;28;20117;-62
2024/01/07 03:44:56;;;;;;;24.60;8.98;;;;;;;;;;6292183;28;20116;-63
2024/01/07 03:47:57;;;;;;;16.25;7.43;;;;;;;;;;6293412;28;20054;-63
2024/01/07 03:50:57;;;;;;;15.52;6.97;;;;;;;;;;6294019;28;20045;-63
2024/01/07 03:53:58;;;;;;;18.80;7.63;;;;;;;;;;6291463;28;20139;-63
2024/01/07 03:56:59;;;;;;;19.13;7.70;;;;;;;;;;6292354;28;20079;-63
2024/01/07 04:00:00;;;;;;;20.77;8.73;;;;;;;;;;6293614;28;20064;-63
2024/01/07 04:03:01;;;;;;;22.33;8.10;;;;;;;;;;6293827;28;20048;-62
2024/01/07 04:06:07;;;;;;;21.63;8.77;;;;;;;;;;6293710;28;20051;-62
2024/01/07 04:09:08;;;;;;;18.40;8.13;;;;;;;;;;6292501;28;20048;-63
2024/01/07 04:12:09;;;;;;;20.48;8.10;;;;;;;;;;6292335;28;20048;-63
2024/01/07 04:15:13;;;;;;;18.85;7.82;;;;;;;;;;6292141;28;20052;-62
2024/01/07 04:18:14;;;;;;;23.60;8.88;;;;;;;;;;6293320;28;20389;-63
2024/01/07 04:21:14;;;;;;;17.85;7.93;;;;;;;;;;6292816;28;20048;-62
2024/01/07 04:24:15;;;;;;;17.48;8.23;;;;;;;;;;6289355;28;20198;-63
2024/01/07 04:27:16;;;;;;;21.27;9.13;;;;;;;;;;6292348;28;20595;-62
2024/01/07 04:30:17;;;;;;;17.63;7.63;;;;;;;;;;6290914;28;20055;-63
2024/01/07 04:33:17;;;;;;;22.65;7.65;;;;;;;;;;6291796;28;20045;-62
2024/01/07 04:36:18;;;;;;;22.10;7.90;;;;;;;;;;6291670;28;20056;-63
2024/01/07 04:39:19;;;;;;;17.55;7.47;;;;;;;;;;6289992;28;20041;-63
2024/01/07 04:42:20;;;;;;;22.52;7.43;;;;;;;;;;6290664;28;20047;-62
2024/01/07 04:45:20;;;;;;;24.50;7.97;;;;;;;;;;6291065;28;20036;-62
2024/01/07 04:48:21;;;;;;;19.90;7.82;;;;;;;;;;6292968;28;20044;-62
2024/01/07 04:51:22;;;;;;;23.23;8.63;;;;;;;;;;6293080;28;20460;-63
2024/01/07 04:54:23;;;;;;;17.90;7.63;;;;;;;;;;6289491;28;20128;-63
2024/01/07 04:57:23;;;;;;;17.98;7.35;;;;;;;;;;6291977;28;20052;-62
2024/01/07 05:00:24;;;;;;;18.20;7.88;;;;;;;;;;6292793;28;20052;-62
2024/01/07 05:03:25;;;;;;;19.60;7.03;;;;;;;;;;6290601;28;20083;-62
2024/01/07 05:06:26;;;;;;;22.15;7.90;;;;;;;;;;6290166;28;20068;-62
2024/01/07 05:09:27;;;;;;;23.40;7.47;;;;;;;;;;6291528;28;20487;-63
2024/01/07 05:12:28;;;;;;;18.33;7.63;;;;;;;;;;6291147;28;20044;-63
2024/01/07 05:15:29;;;;;;;21.27;7.88;;;;;;;;;;6291027;28;20060;-62
2024/01/07 05:18:29;;;;;;;22.05;8.10;;;;;;;;;;6291992;28;20055;-62
2024/01/07 05:21:30;;;;;;;23.67;8.40;;;;;;;;;;6291670;28;20483;-63
2024/01/07 05:24:31;;;;;;;18.95;8.10;;;;;;;;;;6289817;28;20041;-63
2024/01/07 05:27:32;;;;;;;21.85;9.10;;;;;;;;;;6289587;28;20052;-62
2024/01/07 05:30:33;;;;;;;24.77;9.68;;;;;;;;;;6291624;28;20492;-62
2024/01/07 05:33:33;;;;;;;23.75;8.65;;;;;;;;;;6290083;28;20048;-62
2024/01/07 05:36:34;;;;;;;21.13;7.32;;;;;;;;;;6290444;28;20132;-63
2024/01/07 05:39:35;;;;;;;22.17;7.50;;;;;;;;;;6290636;28;20488;-62
2024/01/07 05:42:36;;;;;;;18.42;7.45;;;;;;;;;;6287951;28;20055;-62
2024/01/07 05:45:36;;;;;;;20.75;7.30;;;;;;;;;;6288241;28;20057;-62
2024/01/07 05:48:49;;;;;;;24.17;7.88;;;;;;;;;;6289448;28;21218;-62
2024/01/07 05:51:50;;;;;;;20.58;7.40;;;;;;;;;;6286744;28;20049;-62
2024/01/07 05:54:51;;;;;;;20.25;7.45;;;;;;;;;;6289253;28;20514;-62
2024/01/07 05:57:51;;;;;;;20.92;7.03;;;;;;;;;;6289932;28;20506;-62
2024/01/07 06:00:52;;;;;;;21.75;7.85;;;;;;;;;;6288190;28;20063;-62
2024/01/07 06:03:53;;;;;;;24.20;7.78;;;;;;;;;;6288407;28;20523;-61
2024/01/07 06:06:54;;;;;;;24.67;7.68;;;;;;;;;;6287443;28;20111;-62
2024/01/07 06:09:55;;;;;;;19.33;7.80;;;;;;;;;;6290647;28;20048;-62
2024/01/07 06:12:56;;;;;;;17.10;6.57;;;;;;;;;;6288538;28;20480;-62
2024/01/07 06:15:57;;;;;;;20.40;6.80;;;;;;;;;;6289435;28;20041;-62
2024/01/07 06:18:57;;;;;;;20.30;7.65;;;;;;;;;;6290595;28;20119;-62
2024/01/07 06:21:58;;;;;;;24.02;8.02;;;;;;;;;;6275592;28;20507;-63
2024/01/07 06:24:59;;;;;;;22.23;8.38;;;;;;;;;;6287961;28;20040;-62
2024/01/07 06:28:00;;;;;;;20.77;8.02;;;;;;;;;;6290841;28;20635;-61
2024/01/07 06:31:03;;;;;;;20.23;6.93;;;;;;;;;;6288728;28;20061;-62
2024/01/07 06:34:03;;;;;;;24.95;7.82;;;;;;;;;;6288770;28;20055;-62
2024/01/07 06:37:05;;;;;;;27.20;9.13;;;;;;;;;;6289998;28;20072;-62
2024/01/07 06:40:06;;;;;;;20.80;8.00;;;;;;;;;;6288711;28;20133;-62
2024/01/07 06:43:07;;;;;;;27.83;7.90;;;;;;;;;;6287851;28;20056;-62
2024/01/07 06:46:08;;;;;;;25.77;7.65;;;;;;;;;;6288602;28;20472;-61
2024/01/07 06:49:09;;;;;;;30.15;8.90;;;;;;;;;;6290148;28;20044;-61
2024/01/07 06:52:10;;;;;;;22.35;7.50;;;;;;;;;;6290508;28;20472;-62
2024/01/07 06:55:11;;;;;;;26.93;8.33;;;;;;;;;;6287073;28;20048;-62
2024/01/07 06:58:11;;;;;;;28.38;8.60;;;;;;;;;;6289942;28;20768;-62
2024/01/07 07:01:13;;;;;;;28.55;9.45;;;;;;;;;;6289319;28;20095;-61
2024/01/07 07:04:14;;;;;;;30.70;10.05;;;;;;;;;;6291256;28;20045;-62
2024/01/07 07:07:14;;;;;;;29.92;10.35;;;;;;;;;;6295197;28;20059;-61
2024/01/07 07:10:15;;;;;;;27.95;9.48;;;;;;;;;;6294552;28;20067;-62
2024/01/07 07:13:16;;;;;;;25.55;8.70;;;;;;;;;;6292165;28;20119;-62
2024/01/07 07:16:17;;;;;;;22.88;8.23;;;;;;;;;;6289653;28;20044;-62
2024/01/07 07:19:18;;;;;;;24.30;8.63;;;;;;;;;;6294804;28;20062;-62
2024/01/07 07:22:18;;;;;;;26.02;8.50;;;;;;;;;;6294674;28;20055;-63
2024/01/07 07:25:19;;;;;;;21.90;8.52;;;;;;;;;;6289834;28;20067;-62
2024/01/07 07:28:20;;;;;;;21.75;8.48;;;;;;;;;;6294334;28;20130;-63
2024/01/07 07:31:21;;;;;;;20.70;8.57;;;;;;;;;;6295030;28;20139;-63
2024/01/07 07:34:22;;;;;;;24.17;9.77;;;;;;;;;;6294398;28;20060;-62
2024/01/07 07:37:23;;;;;;;26.35;9.15;;;;;;;;;;6292770;28;20064;-62
2024/01/07 07:40:23;;;;;;;22.50;8.98;;;;;;;;;;6293789;28;20044;-63
2024/01/07 07:43:24;;;;;;;21.80;8.95;;;;;;;;;;6294708;28;20568;-62
2024/01/07 07:46:25;;;;;;;22.33;8.35;;;;;;;;;;6293530;28;20131;-62
2024/01/07 07:49:26;;;;;;;16.38;7.43;;;;;;;;;;6293652;28;20051;-62
2024/01/07 07:52:27;;;;;;;23.00;9.07;;;;;;;;;;6293499;28;20078;-62
2024/01/07 07:55:28;;;;;;;24.75;8.38;;;;;;;;;;6290915;28;20893;-61
2024/01/07 07:58:29;;;;;;;24.90;9.93;;;;;;;;;;6292393;28;20135;-62
2024/01/07 08:01:30;;;;;;;26.35;8.63;;;;;;;;;;6292639;28;20043;-61
2024/01/07 08:04:30;;;;;;;23.80;8.90;;;;;;;;;;6292004;28;20048;-62
2024/01/07 08:07:31;;;;;;;26.75;9.20;;;;;;;;;;6292462;28;20055;-61
2024/01/07 08:10:32;;;;;;;27.73;9.73;;;;;;;;;;6293424;28;20037;-62
2024/01/07 08:13:35;;;;;;;30.20;9.45;;;;;;;;;;6291607;28;20075;-61
2024/01/07 08:16:35;;;;;;;26.08;9.13;;;;;;;;;;6291631;28;20078;-61
2024/01/07 08:19:37;;;;;;;30.52;10.05;;;;;;;;;;6292927;28;20044;-62
2024/01/07 08:22:37;;;;;;;30.13;10.85;;;;;;;;;;6292580;28;20438;-65
2024/01/07 08:25:38;;;;;;;24.77;9.60;;;;;;;;;;6291739;28;20037;-62
2024/01/07 08:28:39;;;;;;;23.83;8.63;;;;;;;;;;6293454;28;20364;-62
2024/01/07 08:31:40;;;;;;;30.48;9.35;;;;;;;;;;6290848;28;20047;-62
2024/01/07 08:34:40;;;;;;;31.73;10.15;;;;;;;;;;6290813;28;20052;-62
2024/01/07 08:37:41;;;;;;;28.42;9.45;;;;;;;;;;6292796;28;20442;-61
2024/01/07 08:40:42;;;;;;;32.88;11.00;;;;;;;;;;6292745;28;20094;-60
2024/01/07 08:43:43;;;;;;;34.95;10.60;;;;;;;;;;6289765;28;20866;-61
2024/01/07 08:46:45;;;;;;;33.53;11.47;;;;;;;;;;6293163;28;20043;-62
2024/01/07 08:49:46;;;;;;;35.58;10.02;;;;;;;;;;6293455;28;20301;-61
2024/01/07 08:52:47;;;;;;;32.20;10.38;;;;;;;;;;6292432;28;20086;-60
2024/01/07 08:55:48;;;;;;;39.05;13.23;;;;;;;;;;6291309;28;20492;-61
2024/01/07 08:58:49;;;;;;;37.70;12.50;;;;;;;;;;6291359;28;20048;-60
2024/01/07 09:01:50;;;;;;;33.25;11.45;;;;;;;;;;6292442;28;20403;-60
2024/01/07 09:04:50;;;;;;;31.83;11.98;;;;;;;;;;6290055;28;20049;-61
2024/01/07 09:07:51;;;;;;;31.48;11.32;;;;;;;;;;6293376;28;20053;-61
2024/01/07 09:10:52;;;;;;;31.52;10.65;;;;;;;;;;6290011;28;20040;-62
2024/01/07 09:13:53;;;;;;;30.60;11.30;;;;;;;;;;6290954;28;20045;-61
2024/01/07 09:16:53;;;;;;;34.95;10.55;;;;;;;;;;6291597;28;20048;-62
2024/01/07 09:19:55;;;;;;;30.73;11.02;;;;;;;;;;6282040;28;20075;-61
2024/01/07 09:22:56;;;;;;;28.60;10.48;;;;;;;;;;6288447;28;20094;-63
2024/01/07 09:25:56;;;;;;;32.83;10.57;;;;;;;;;;6293462;28;20128;-61
2024/01/07 09:28:57;;;;;;;29.48;11.30;;;;;;;;;;6278620;28;20041;-61
2024/01/07 09:31:59;;;;;;;25.85;9.60;;;;;;;;;;6294601;28;20491;-61
2024/01/07 09:34:59;;;;;;;31.33;12.15;;;;;;;;;;6279175;28;20060;-62
2024/01/07 09:38:00;;;;;;;27.05;10.88;;;;;;;;;;6294372;28;20539;-63
2024/01/07 09:41:02;;;;;;;28.00;10.10;;;;;;;;;;6293746;28;20052;-62
2024/01/07 09:44:03;;;;;;;;;;;;;;;;;;6293999;28;20047;-62
2024/01/07 09:47:07;;;;;;;26.20;8.27;;;;;;;;;;6294837;28;19921;-62
2024/01/07 09:50:09;;;;;;;27.38;10.30;;;;;;;;;;6292041;28;20056;-58
2024/01/07 09:53:18;;;;;;;24.88;10.02;;;;;;;;;;6292894;28;20052;-61
2024/01/07 09:56:23;;;;;;;25.05;9.77;;;;;;;;;;6289206;28;20502;-61
2024/01/07 09:59:24;;;;;;;29.85;11.73;;;;;;;;;;6286376;28;20056;-62
2024/01/07 10:02:25;;;;;;;25.10;9.63;;;;;;;;;;6286493;28;20066;-61
2024/01/07 10:05:26;;;;;;;28.45;10.65;;;;;;;;;;6279599;28;20457;-61
2024/01/07 10:08:27;;;;;;;35.25;11.35;;;;;;;;;;6292193;28;20098;-62
2024/01/07 10:11:27;;;;;;;33.28;12.07;;;;;;;;;;6290970;28;20125;-61
2024/01/07 10:14:29;;;;;;;35.17;11.60;;;;;;;;;;6289844;28;20739;-62
2024/01/07 10:17:30;;;;;;;32.05;11.48;;;;;;;;;;6291797;28;20136;-61
2024/01/07 10:20:34;;;;;;;24.95;10.30;;;;;;;;;;6281239;28;20139;-61
2024/01/07 10:23:35;;;;;;;38.72;14.55;;;;;;;;;;6293311;28;20415;-60
2024/01/07 10:26:42;;;;;;;37.08;12.35;;;;;;;;;;6289128;28;20150;-61
2024/01/07 10:29:44;;;;;;;34.72;12.90;;;;;;;;;;6290030;28;20157;-61
2024/01/07 10:32:45;;;;;;;30.40;12.00;;;;;;;;;;6291537;28;20048;-61
2024/01/07 10:35:58;;;;;;;35.22;12.48;;;;;;;;;;6288300;28;20079;-61
2024/01/07 10:38:58;;;;;;;;;;;;;;;;;;6289931;28;20048;-61
2024/01/07 10:41:59;;;;;;;25.95;9.68;;;;;;;;;;6279973;28;19924;-61
2024/01/07 10:45:00;;;;;;;31.10;11.20;;;;;;;;;;6280676;28;20098;-61
2024/01/07 10:48:07;;;;;;;25.90;10.13;;;;;;;;;;6288340;28;20475;-61
2024/01/07 10:51:08;;;;;;;27.40;11.10;;;;;;;;;;6282785;28;20055;-61
2024/01/07 10:54:13;;;;;;;28.92;11.90;;;;;;;;;;6287385;28;20484;-61
2024/01/07 10:57:40;;;;;;;33.45;12.10;;;;;;;;;;6285878;28;20111;-61
2024/01/07 11:00:41;;;;;;;28.65;11.40;;;;;;;;;;6286493;28;20407;-61
2024/01/07 11:03:55;;;;;;;32.17;11.85;;;;;;;;;;6291108;28;20044;-60
2024/01/07 11:07:03;;;;;;;36.35;12.60;;;;;;;;;;6285240;28;20071;-60
2024/01/07 11:10:19;;;;;;;26.90;10.75;;;;;;;;;;6281474;28;20067;-63
2024/01/07 11:13:33;;;;;;;23.42;8.35;;;;;;;;;;6292073;28;20053;-60
2024/01/07 11:16:43;;;;;;;24.27;8.05;;;;;;;;;;6290904;28;20185;-61
2024/01/07 11:19:51;;;;;;;22.33;8.90;;;;;;;;;;6291504;28;20500;-61
2024/01/07 11:22:52;;;;;;;21.30;7.75;;;;;;;;;;6289910;28;20408;-60
2024/01/07 11:25:52;;;;;;;26.20;8.50;;;;;;;;;;6290709;28;20040;-60
2024/01/07 11:28:57;;;;;;;23.23;7.85;;;;;;;;;;6291847;28;20037;-61
2024/01/07 11:31:58;;;;;;;26.52;10.23;;;;;;;;;;6289271;28;20048;-60
2024/01/07 11:35:00;;;;;;;26.45;9.60;;;;;;;;;;6291442;28;20052;-61
2024/01/07 11:38:00;;;;;;;21.75;8.57;;;;;;;;;;6292034;28;20064;-61
2024/01/07 11:41:05;;;;;;;22.90;8.75;;;;;;;;;;6289821;28;20086;-60
2024/01/07 11:44:08;;;;;;;21.40;7.97;;;;;;;;;;6291102;28;20053;-61
2024/01/07 11:47:09;;;;;;;21.50;8.48;;;;;;;;;;6291805;28;20063;-61
2024/01/07 11:50:09;;;;;;;23.67;8.57;;;;;;;;;;6294714;28;20060;-62
2024/01/07 11:53:13;;;;;;;25.15;8.80;;;;;;;;;;6296814;28;20139;-62
2024/01/07 11:56:14;;;;;;;22.10;8.85;;;;;;;;;;6297313;28;20076;-62
2024/01/07 11:59:15;;;;;;;26.15;10.15;;;;;;;;;;6293997;28;20045;-63
2024/01/07 12:02:17;;;;;;;29.45;10.48;;;;;;;;;;6294128;28;20082;-62
2024/01/07 12:05:18;;;;;;;26.17;10.10;;;;;;;;;;6295532;28;20458;-61
2024/01/07 12:08:20;;;;;;;24.60;9.02;;;;;;;;;;6296705;28;20151;-61
2024/01/07 12:11:21;;;;;;;29.35;11.90;;;;;;;;;;6294445;28;20075;-61
2024/01/07 12:14:22;;;;;;;28.70;9.88;;;;;;;;;;6293764;28;20048;-60
2024/01/07 12:17:23;;;;;;;31.30;10.70;;;;;;;;;;6294593;28;20044;-61
2024/01/07 12:20:24;;;;;;;25.65;9.88;;;;;;;;;;6294391;28;20045;-61
2024/01/07 12:23:28;;;;;;;22.07;8.33;;;;;;;;;;6293359;28;20053;-61
2024/01/07 12:26:29;;;;;;;27.45;10.32;;;;;;;;;;6283675;28;20060;-62
2024/01/07 12:29:29;;;;;;;29.10;9.57;;;;;;;;;;6294658;28;20048;-63
2024/01/07 12:32:31;;;;;;;24.58;9.70;;;;;;;;;;6293080;28;20049;-63
2024/01/07 12:35:32;;;;;;;21.23;8.80;;;;;;;;;;6293685;28;20049;-64
2024/01/07 12:38:33;;;;;;;26.38;10.02;;;;;;;;;;6282499;28;20658;-62
2024/01/07 12:41:34;;;;;;;22.05;8.55;;;;;;;;;;6284866;28;20384;-63
2024/01/07 12:44:36;;;;;;;32.40;10.82;;;;;;;;;;6286527;28;20044;-61
2024/01/07 12:47:37;;;;;;;27.90;9.77;;;;;;;;;;6288888;28;20041;-62
2024/01/07 12:50:38;;;;;;;25.73;10.80;;;;;;;;;;6293925;28;20476;-61
2024/01/07 12:53:39;;;;;;;30.48;10.02;;;;;;;;;;6292192;28;20044;-62
2024/01/07 12:56:39;;;;;;;25.73;9.85;;;;;;;;;;6295548;28;20472;-61
2024/01/07 12:59:40;;;;;;;27.33;11.07;;;;;;;;;;6295205;28;20052;-60
2024/01/07 13:02:42;;;;;;;25.02;10.05;;;;;;;;;;6293752;28;20411;-60
2024/01/07 13:05:44;;;;;;;29.45;12.25;;;;;;;;;;6294282;28;20063;-60
2024/01/07 13:08:44;;;;;;;25.30;9.40;;;;;;;;;;6295136;28;20079;-58
2024/01/07 13:11:45;;;;;;;29.08;9.82;;;;;;;;;;6296304;28;20059;-60
2024/01/07 13:14:46;;;;;;;30.80;10.70;;;;;;;;;;6295371;28;20089;-61
2024/01/07 13:17:48;;;;;;;33.17;11.77;;;;;;;;;;6294184;28;20056;-60
2024/01/07 13:20:48;;;;;;;27.58;11.43;;;;;;;;;;6295522;28;20041;-60
2024/01/07 13:23:49;;;;;;;39.38;12.00;;;;;;;;;;6293808;28;20044;-67
2024/01/07 13:26:50;;;;;;;33.92;10.90;;;;;;;;;;6294729;28;20049;-65
2024/01/07 13:29:51;;;;;;;35.67;13.43;;;;;;;;;;6297642;28;20057;-66
2024/01/07 13:32:56;;;;;;;36.88;13.32;;;;;;;;;;6294869;28;20045;-67
2024/01/07 13:35:57;;;;;;;34.80;11.25;;;;;;;;;;6292288;28;20056;-63
2024/01/07 13:38:58;;;;;;;34.42;12.43;;;;;;;;;;6292427;28;20433;-67
2024/01/07 13:41:59;;;;;;;32.17;12.15;;;;;;;;;;6293080;28;20123;-60
2024/01/07 13:44:59;;;;;;;33.35;11.40;;;;;;;;;;6291792;28;20114;-57
2024/01/07 13:48:00;;;;;;;31.38;11.63;;;;;;;;;;6292415;28;20123;-62
2024/01/07 13:51:02;;;;;;;30.23;11.68;;;;;;;;;;6292954;28;20055;-58
2024/01/07 13:54:03;;;;;;;;;;;;;;;;;;6291396;28;20067;-61
2024/01/07 13:57:04;;;;;;;35.22;14.02;;;;;;;;;;6288347;28;19925;-59
2024/01/07 14:00:09;;;;;;;28.67;10.73;;;;;;;;;;6267859;28;20510;-59
2024/01/07 14:03:09;;;;;;;40.50;13.80;;;;;;;;;;6269702;28;20059;-60
2024/01/07 14:06:11;;;;;;;39.53;13.45;;;;;;;;;;6273169;28;20423;-59
2024/01/07 14:09:11;;;;;;;30.38;12.90;;;;;;;;;;6271729;28;20048;-60
2024/01/07 14:12:12;;;;;;;41.03;16.63;;;;;;;;;;6267150;28;20045;-59
2024/01/07 14:15:13;;;;;;;39.28;12.98;;;;;;;;;;6271405;28;20048;-63
2024/01/07 14:18:17;;;;;;;42.60;15.65;;;;;;;;;;6271010;28;20438;-61
2024/01/07 14:21:17;;;;;;;41.33;13.55;;;;;;;;;;6275132;28;20060;-60
2024/01/07 14:24:18;;;;;;;39.50;14.23;;;;;;;;;;6268682;28;20555;-62
2024/01/07 14:27:19;;;;;;;33.42;13.00;;;;;;;;;;6274742;28;20695;-61
2024/01/07 14:30:20;;;;;;;45.58;15.10;;;;;;;;;;6263632;28;20052;-62
2024/01/07 14:33:20;;;;;;;37.95;12.57;;;;;;;;;;6267587;28;20063;-63
2024/01/07 14:36:22;;;;;;;40.42;14.05;;;;;;;;;;6265818;28;20053;-63
2024/01/07 14:39:22;;;;;;;43.33;14.40;;;;;;;;;;6270918;28;20117;-65
2024/01/07 14:42:23;;;;;;;38.42;14.80;;;;;;;;;;6272842;28;20385;-64
2024/01/07 14:45:27;;;;;;;34.72;14.73;;;;;;;;;;6271144;28;20049;-64
2024/01/07 14:48:28;;;;;;;49.53;15.95;;;;;;;;;;6269651;28;20063;-60
2024/01/07 14:51:30;;;;;;;40.40;14.77;;;;;;;;;;6276936;28;20487;-63
2024/01/07 14:54:32;;;;;;;;;;;;;;;;;;6270601;28;20068;-62
2024/01/07 14:57:33;;;;;;;42.57;13.87;;;;;;;;;;6271649;28;19925;-64
2024/01/07 15:00:34;;;;;;;41.53;13.93;;;;;;;;;;6269353;28;20458;-64
2024/01/07 15:03:34;;;;;;;38.83;14.40;;;;;;;;;;6273861;28;20063;-64
2024/01/07 15:06:43;;;;;;;45.88;16.02;;;;;;;;;;6271221;28;20053;-63
2024/01/07 15:09:44;;;;;;;48.45;16.98;;;;;;;;;;6264986;28;20072;-61
2024/01/07 15:12:45;;;;;;;37.22;13.38;;;;;;;;;;6270533;28;20530;-61
2024/01/07 15:15:45;;;;;;;44.50;15.02;;;;;;;;;;6271656;28;20056;-61
2024/01/07 15:18:46;;;;;;;47.17;15.75;;;;;;;;;;6269629;28;20338;-60
2024/01/07 15:21:47;;;;;;;49.97;17.10;;;;;;;;;;6277612;28;20048;-61
2024/01/07 15:24:48;;;;;;;48.50;16.33;;;;;;;;;;6272934;28;20102;-61
2024/01/07 15:27:49;;;;;;;44.25;14.68;;;;;;;;;;6275820;28;20057;-61
2024/01/07 15:30:50;;;;;;;40.58;14.25;;;;;;;;;;6271954;28;20074;-62
2024/01/07 15:33:50;;;;;;;45.35;14.85;;;;;;;;;;6268935;28;20056;-61
2024/01/07 15:36:51;;;;;;;40.70;15.32;;;;;;;;;;6274001;28;20045;-60
2024/01/07 15:39:54;;;;;;;54.67;16.48;;;;;;;;;;6269404;28;20057;-61
2024/01/07 15:42:55;;;;;;;49.00;16.27;;;;;;;;;;6273838;28;20053;-60
2024/01/07 15:45:55;;;;;;;48.45;16.58;;;;;;;;;;6273238;28;20052;-60
2024/01/07 15:48:56;;;;;;;50.53;15.98;;;;;;;;;;6269279;28;20119;-60
2024/01/07 15:51:57;;;;;;;51.90;17.42;;;;;;;;;;6277048;28;20053;-60
2024/01/07 15:54:58;;;;;;;52.22;18.73;;;;;;;;;;6273067;28;20113;-61
2024/01/07 15:58:00;;;;;;;63.05;19.65;;;;;;;;;;6278562;28;20267;-61
2024/01/07 16:01:03;;;;;;;64.82;21.15;;;;;;;;;;6265782;28;20434;-60
2024/01/07 16:04:03;;;;;;;67.80;18.52;;;;;;;;;;6274440;28;20514;-59
2024/01/07 16:07:04;;;;;;;57.67;17.08;;;;;;;;;;6277286;28;20052;-60
2024/01/07 16:10:06;;;;;;;56.67;18.60;;;;;;;;;;6273524;28;20087;-60
2024/01/07 16:13:07;;;;;;;48.15;16.42;;;;;;;;;;6273518;28;20495;-60
2024/01/07 16:16:07;;;;;;;56.20;18.88;;;;;;;;;;6271933;28;20056;-64
2024/01/07 16:19:10;;;;;;;56.83;17.35;;;;;;;;;;6265969;28;20867;-69
2024/01/07 16:22:12;;;;;;;56.10;17.67;;;;;;;;;;6273381;28;20056;-66
2024/01/07 16:25:13;;;;;;;48.17;16.80;;;;;;;;;;6271939;28;20049;-63
2024/01/07 16:28:13;;;;;;;62.97;17.65;;;;;;;;;;6268170;28;20114;-62
2024/01/07 16:31:14;;;;;;;64.82;19.45;;;;;;;;;;6267040;28;20137;-65
2024/01/07 16:34:15;;;;;;;62.75;19.50;;;;;;;;;;6270784;28;20053;-63
2024/01/07 16:37:16;;;;;;;52.92;17.05;;;;;;;;;;6272811;28;20074;-64
2024/01/07 16:40:16;;;;;;;58.95;18.13;;;;;;;;;;6268185;28;20059;-64
2024/01/07 16:43:17;;;;;;;60.15;18.35;;;;;;;;;;6273022;28;20057;-64
2024/01/07 16:46:19;;;;;;;56.65;18.95;;;;;;;;;;6275475;28;20465;-62
2024/01/07 16:49:20;;;;;;;62.67;19.80;;;;;;;;;;6268933;28;20060;-65
2024/01/07 16:52:20;;;;;;;66.82;21.08;;;;;;;;;;6273766;28;20055;-67
2024/01/07 16:55:21;;;;;;;63.78;20.23;;;;;;;;;;6268948;28;20110;-64
2024/01/07 16:58:22;;;;;;;61.35;21.40;;;;;;;;;;6270993;28;20045;-66
2024/01/07 17:01:25;;;;;;;57.80;19.17;;;;;;;;;;6277219;28;20048;-63
2024/01/07 17:04:26;;;;;;;60.38;18.75;;;;;;;;;;6270673;28;20584;-63
2024/01/07 17:07:30;;;;;;;58.80;18.48;;;;;;;;;;6276617;28;20139;-63
2024/01/07 17:10:30;;;;;;;56.70;16.92;;;;;;;;;;6272387;28;20060;-63
2024/01/07 17:13:31;;;;;;;67.93;20.02;;;;;;;;;;6272153;28;20045;-64
2024/01/07 17:16:34;;;;;;;62.53;19.80;;;;;;;;;;6273422;28;20487;-64
2024/01/07 17:19:35;;;;;;;76.00;22.20;;;;;;;;;;6273681;28;20139;-64
2024/01/07 17:22:36;;;;;;;75.00;20.02;;;;;;;;;;6275595;28;20060;-64
2024/01/07 17:25:37;;;;;;;79.40;22.42;;;;;;;;;;6272549;28;20057;-63
2024/01/07 17:28:37;;;;;;;64.43;20.67;;;;;;;;;;6266331;28;20044;-61
2024/01/07 17:31:38;;;;;;;62.80;19.90;;;;;;;;;;6269198;28;20049;-64
2024/01/07 17:34:39;;;;;;;64.22;19.55;;;;;;;;;;6272802;28;20056;-64
2024/01/07 17:37:40;;;;;;;67.78;20.30;;;;;;;;;;6275030;28;20059;-63
2024/01/07 17:40:41;;;;;;;64.55;20.42;;;;;;;;;;6268460;28;20052;-68
2024/01/07 17:43:42;;;;;;;65.40;18.70;;;;;;;;;;6270394;28;20053;-65